Terminal Aerodrome Forecast
Issued by NWS Grand Rapids, MI

Home | Current Version | Previous Version | Text Only | Print | Product List | Glossary On
Versions: 1 2 3 4 5 6 7 8 9 10 11 12 13 14 15 16 17
180
FTUS43 KGRR 271140
TAFGRR
TAF
KGRR 271140Z 2712/2812 21011KT P6SM SCT100
     FM271330 25016G26KT P6SM SCT050 BKN100
     FM271600 25016G26KT P6SM VCSH OVC040
     FM272300 25011KT P6SM -SHRA OVC025
     FM280400 23005KT P6SM -SHRA OVC015
     FM280700 VRB04KT 5SM -SHRA BR OVC007=

USA.gov is the U.S. government's official web portal to all federal, state and local government web resources and services.